SWR130 LSZH-LSGG
Flight info
| Callsign | SWR130 |
|---|---|
| Flight time | 0h 37m |
| Altitude | 15000 |
| Route | VEBIT T50 ROTOS Z669 ULMES |
| Aircraft | A339/H-SADE1E2E3GHIJ3J5M1P2RWXY/LB2D1 |
Departure
| Time | 2026-04-26 08:39 |
|---|---|
| Airport | Zürich Airport (LSZH) |
Arrival
| Time | 2026-04-26 09:16 |
|---|---|
| Airport | Geneva International Airport (LSGG) |
| Time | Latitude | Longitude | Altitude | Speed | Heading |
|---|---|---|---|---|---|
| 2026-04-26 08:09 | 47.46028 | 8.55833 | 1410 ft | 0 kts | 6° |
| 2026-04-26 08:27 | 47.46016 | 8.55831 | 1417 ft | 4 kts | 6° |
| 2026-04-26 08:27 | 47.45992 | 8.55827 | 1413 ft | 1 kts | 6° |
| 2026-04-26 08:28 | 47.45969 | 8.55823 | 1412 ft | 4 kts | 346° |
| 2026-04-26 08:28 | 47.45948 | 8.55831 | 1410 ft | 4 kts | 304° |
| 2026-04-26 08:28 | 47.45939 | 8.55859 | 1411 ft | 4 kts | 276° |
| 2026-04-26 08:28 | 47.45937 | 8.55887 | 1415 ft | 0 kts | 276° |
| 2026-04-26 08:32 | 47.45938 | 8.55882 | 1414 ft | 3 kts | 276° |
| 2026-04-26 08:33 | 47.45942 | 8.55821 | 1411 ft | 14 kts | 275° |
| 2026-04-26 08:33 | 47.45960 | 8.55571 | 1409 ft | 22 kts | 276° |
| 2026-04-26 08:33 | 47.45971 | 8.55411 | 1409 ft | 24 kts | 276° |
| 2026-04-26 08:33 | 47.45991 | 8.55150 | 1400 ft | 18 kts | 278° |
| 2026-04-26 08:34 | 47.46011 | 8.54968 | 1408 ft | 19 kts | 296° |
| 2026-04-26 08:34 | 47.46130 | 8.54864 | 1404 ft | 21 kts | 335° |
| 2026-04-26 08:34 | 47.46272 | 8.54767 | 1402 ft | 24 kts | 335° |
| 2026-04-26 08:34 | 47.46427 | 8.54660 | 1398 ft | 25 kts | 335° |
| 2026-04-26 08:35 | 47.46586 | 8.54552 | 1404 ft | 25 kts | 335° |
| 2026-04-26 08:35 | 47.46736 | 8.54452 | 1386 ft | 21 kts | 337° |
| 2026-04-26 08:35 | 47.46883 | 8.54361 | 1386 ft | 24 kts | 335° |
| 2026-04-26 08:35 | 47.47034 | 8.54258 | 1403 ft | 24 kts | 335° |
| 2026-04-26 08:36 | 47.47186 | 8.54151 | 1400 ft | 24 kts | 333° |
| 2026-04-26 08:36 | 47.47342 | 8.54045 | 1403 ft | 25 kts | 335° |
| 2026-04-26 08:36 | 47.47496 | 8.53941 | 1408 ft | 24 kts | 335° |
| 2026-04-26 08:36 | 47.47606 | 8.53809 | 1408 ft | 12 kts | 289° |
| 2026-04-26 08:37 | 47.47608 | 8.53785 | 1405 ft | 2 kts | 279° |
| 2026-04-26 08:37 | 47.47609 | 8.53782 | 1407 ft | 0 kts | 279° |
| 2026-04-26 08:37 | 47.47608 | 8.53772 | 1406 ft | 4 kts | 272° |
| 2026-04-26 08:37 | 47.47588 | 8.53683 | 1407 ft | 12 kts | 248° |
| 2026-04-26 08:38 | 47.47560 | 8.53613 | 1410 ft | 6 kts | 219° |
| 2026-04-26 08:38 | 47.47525 | 8.53628 | 1411 ft | 7 kts | 161° |
| 2026-04-26 08:38 | 47.47489 | 8.53651 | 1407 ft | 2 kts | 155° |
| 2026-04-26 08:38 | 47.47398 | 8.53714 | 1406 ft | 50 kts | 155° |
| 2026-04-26 08:39 | 47.46724 | 8.54179 | 1386 ft | 159 kts | 153° |
| 2026-04-26 08:39 | 47.45558 | 8.54985 | 1889 ft | 195 kts | 156° |
| 2026-04-26 08:39 | 47.44341 | 8.55775 | 3305 ft | 186 kts | 152° |
| 2026-04-26 08:39 | 47.43085 | 8.56455 | 4305 ft | 205 kts | 169° |
| 2026-04-26 08:40 | 47.41601 | 8.56177 | 5116 ft | 229 kts | 200° |
| 2026-04-26 08:40 | 47.40259 | 8.54737 | 5865 ft | 252 kts | 229° |
| 2026-04-26 08:40 | 47.39454 | 8.52355 | 6541 ft | 270 kts | 257° |
| 2026-04-26 08:40 | 47.39481 | 8.49565 | 7390 ft | 277 kts | 284° |
| 2026-04-26 08:41 | 47.40074 | 8.46849 | 8315 ft | 281 kts | 289° |
| 2026-04-26 08:41 | 47.40464 | 8.44002 | 9297 ft | 285 kts | 276° |
| 2026-04-26 08:41 | 47.40388 | 8.41098 | 10258 ft | 290 kts | 264° |
| 2026-04-26 08:41 | 47.39943 | 8.38080 | 10770 ft | 313 kts | 256° |
| 2026-04-26 08:42 | 47.39227 | 8.34934 | 11154 ft | 335 kts | 250° |
| 2026-04-26 08:42 | 47.38150 | 8.31810 | 11841 ft | 344 kts | 242° |
| 2026-04-26 08:42 | 47.36976 | 8.28714 | 12739 ft | 346 kts | 243° |
| 2026-04-26 08:42 | 47.35822 | 8.25584 | 13640 ft | 349 kts | 243° |
| 2026-04-26 08:43 | 47.34670 | 8.22407 | 14424 ft | 352 kts | 243° |
| 2026-04-26 08:43 | 47.33519 | 8.19202 | 14802 ft | 357 kts | 244° |
| 2026-04-26 08:43 | 47.32364 | 8.15959 | 14921 ft | 357 kts | 244° |
| 2026-04-26 08:43 | 47.31208 | 8.12714 | 14975 ft | 358 kts | 244° |
| 2026-04-26 08:44 | 47.30053 | 8.09472 | 14973 ft | 357 kts | 244° |
| 2026-04-26 08:44 | 47.28900 | 8.06226 | 14970 ft | 357 kts | 244° |
| 2026-04-26 08:44 | 47.27746 | 8.02997 | 14967 ft | 354 kts | 244° |
| 2026-04-26 08:44 | 47.26657 | 7.99855 | 14974 ft | 335 kts | 247° |
| 2026-04-26 08:45 | 47.25768 | 7.96683 | 14973 ft | 338 kts | 249° |
| 2026-04-26 08:45 | 47.24877 | 7.93475 | 14974 ft | 338 kts | 249° |
| 2026-04-26 08:45 | 47.23989 | 7.90272 | 14975 ft | 337 kts | 249° |
| 2026-04-26 08:45 | 47.23142 | 7.87235 | 14972 ft | 338 kts | 249° |
| 2026-04-26 08:46 | 47.22244 | 7.84039 | 14968 ft | 338 kts | 249° |
| 2026-04-26 08:46 | 47.21360 | 7.80895 | 14971 ft | 337 kts | 249° |
| 2026-04-26 08:46 | 47.20458 | 7.77702 | 14972 ft | 338 kts | 249° |
| 2026-04-26 08:46 | 47.19555 | 7.74512 | 14971 ft | 338 kts | 248° |
| 2026-04-26 08:47 | 47.18431 | 7.71479 | 14971 ft | 340 kts | 238° |
| 2026-04-26 08:47 | 47.16990 | 7.68714 | 14971 ft | 341 kts | 232° |
| 2026-04-26 08:47 | 47.15497 | 7.66020 | 14975 ft | 341 kts | 233° |
| 2026-04-26 08:47 | 47.14013 | 7.63301 | 14971 ft | 341 kts | 233° |
| 2026-04-26 08:48 | 47.12537 | 7.60576 | 14970 ft | 341 kts | 233° |
| 2026-04-26 08:48 | 47.11062 | 7.57848 | 14969 ft | 341 kts | 233° |
| 2026-04-26 08:48 | 47.09588 | 7.55121 | 14973 ft | 341 kts | 233° |
| 2026-04-26 08:48 | 47.08112 | 7.52394 | 14968 ft | 341 kts | 233° |
| 2026-04-26 08:49 | 47.06628 | 7.49663 | 14971 ft | 342 kts | 233° |
| 2026-04-26 08:49 | 47.05150 | 7.46930 | 14971 ft | 342 kts | 233° |
| 2026-04-26 08:49 | 47.03670 | 7.44206 | 14947 ft | 341 kts | 233° |
| 2026-04-26 08:49 | 47.02190 | 7.41481 | 14950 ft | 342 kts | 233° |
| 2026-04-26 08:50 | 47.00707 | 7.38762 | 14944 ft | 342 kts | 233° |
| 2026-04-26 08:50 | 46.99220 | 7.36047 | 14949 ft | 342 kts | 233° |
| 2026-04-26 08:50 | 46.97735 | 7.33337 | 14946 ft | 342 kts | 233° |
| 2026-04-26 08:50 | 46.96238 | 7.30621 | 14945 ft | 342 kts | 233° |
| 2026-04-26 08:51 | 46.93260 | 7.25189 | 14951 ft | 343 kts | 233° |
| 2026-04-26 08:51 | 46.91774 | 7.22472 | 14948 ft | 342 kts | 233° |
| 2026-04-26 08:51 | 46.90303 | 7.19785 | 14967 ft | 343 kts | 233° |
| 2026-04-26 08:52 | 46.88813 | 7.17075 | 14969 ft | 343 kts | 233° |
| 2026-04-26 08:52 | 46.87313 | 7.14357 | 14965 ft | 343 kts | 233° |
| 2026-04-26 08:52 | 46.85812 | 7.11636 | 14965 ft | 343 kts | 233° |
| 2026-04-26 08:52 | 46.84320 | 7.08926 | 14976 ft | 343 kts | 233° |
| 2026-04-26 08:53 | 46.82821 | 7.06206 | 14973 ft | 343 kts | 233° |
| 2026-04-26 08:53 | 46.81381 | 7.03595 | 14970 ft | 343 kts | 233° |
| 2026-04-26 08:53 | 46.79884 | 7.00875 | 14963 ft | 343 kts | 233° |
| 2026-04-26 08:53 | 46.78424 | 6.98230 | 14974 ft | 343 kts | 233° |
| 2026-04-26 08:54 | 46.76922 | 6.95523 | 14971 ft | 343 kts | 232° |
| 2026-04-26 08:54 | 46.75416 | 6.92816 | 14963 ft | 343 kts | 232° |
| 2026-04-26 08:54 | 46.73917 | 6.90114 | 14973 ft | 344 kts | 232° |
| 2026-04-26 08:54 | 46.72417 | 6.87402 | 14969 ft | 343 kts | 232° |
| 2026-04-26 08:55 | 46.70917 | 6.84690 | 14971 ft | 344 kts | 232° |
| 2026-04-26 08:55 | 46.69412 | 6.81979 | 14967 ft | 343 kts | 232° |
| 2026-04-26 08:55 | 46.67905 | 6.79275 | 14969 ft | 343 kts | 232° |
| 2026-04-26 08:55 | 46.66414 | 6.76553 | 14970 ft | 343 kts | 235° |
| 2026-04-26 08:56 | 46.65181 | 6.73602 | 14967 ft | 342 kts | 245° |
| 2026-04-26 08:56 | 46.64248 | 6.70417 | 14963 ft | 342 kts | 250° |
| 2026-04-26 08:56 | 46.63377 | 6.67249 | 14962 ft | 341 kts | 249° |
| 2026-04-26 08:56 | 46.62486 | 6.64043 | 14961 ft | 342 kts | 249° |
| 2026-04-26 08:57 | 46.61584 | 6.60844 | 14957 ft | 342 kts | 249° |
| 2026-04-26 08:57 | 46.60673 | 6.57656 | 14964 ft | 342 kts | 249° |
| 2026-04-26 08:57 | 46.59751 | 6.54463 | 14958 ft | 341 kts | 248° |
| 2026-04-26 08:57 | 46.58831 | 6.51280 | 14956 ft | 342 kts | 249° |
| 2026-04-26 08:58 | 46.57909 | 6.48094 | 14956 ft | 342 kts | 248° |
| 2026-04-26 08:58 | 46.56990 | 6.44904 | 14954 ft | 342 kts | 249° |
| 2026-04-26 08:58 | 46.56080 | 6.41757 | 14934 ft | 330 kts | 248° |
| 2026-04-26 08:58 | 46.55212 | 6.38771 | 14745 ft | 312 kts | 248° |
| 2026-04-26 08:59 | 46.54316 | 6.35930 | 14175 ft | 308 kts | 243° |
| 2026-04-26 08:59 | 46.53142 | 6.33388 | 13502 ft | 308 kts | 232° |
| 2026-04-26 08:59 | 46.51674 | 6.31133 | 12817 ft | 307 kts | 225° |
| 2026-04-26 08:59 | 46.50165 | 6.28969 | 12186 ft | 304 kts | 225° |
| 2026-04-26 09:00 | 46.48678 | 6.26813 | 11509 ft | 301 kts | 226° |
| 2026-04-26 09:00 | 46.47213 | 6.24668 | 10926 ft | 296 kts | 226° |
| 2026-04-26 09:00 | 46.45782 | 6.22548 | 10382 ft | 290 kts | 226° |
| 2026-04-26 09:00 | 46.44372 | 6.20461 | 9734 ft | 288 kts | 226° |
| 2026-04-26 09:01 | 46.42969 | 6.18383 | 9077 ft | 286 kts | 226° |
| 2026-04-26 09:01 | 46.41613 | 6.16385 | 8944 ft | 276 kts | 225° |
| 2026-04-26 09:01 | 46.40223 | 6.14343 | 8944 ft | 289 kts | 225° |
| 2026-04-26 09:01 | 46.38812 | 6.12274 | 8943 ft | 287 kts | 225° |
| 2026-04-26 09:02 | 46.37408 | 6.10217 | 8944 ft | 288 kts | 225° |
| 2026-04-26 09:02 | 46.35995 | 6.08148 | 8942 ft | 288 kts | 225° |
| 2026-04-26 09:02 | 46.34591 | 6.06086 | 8943 ft | 289 kts | 226° |
| 2026-04-26 09:02 | 46.33202 | 6.04038 | 8935 ft | 289 kts | 225° |
| 2026-04-26 09:03 | 46.31793 | 6.01978 | 8940 ft | 287 kts | 225° |
| 2026-04-26 09:03 | 46.30388 | 5.99931 | 8944 ft | 287 kts | 225° |
| 2026-04-26 09:03 | 46.28972 | 5.97872 | 8970 ft | 290 kts | 225° |
| 2026-04-26 09:03 | 46.27532 | 5.95796 | 8976 ft | 288 kts | 225° |
| 2026-04-26 09:04 | 46.26139 | 5.93768 | 8880 ft | 288 kts | 225° |
| 2026-04-26 09:04 | 46.24913 | 5.91985 | 8646 ft | 283 kts | 225° |
| 2026-04-26 09:04 | 46.23539 | 5.89969 | 7899 ft | 282 kts | 226° |
| 2026-04-26 09:04 | 46.22167 | 5.87958 | 7317 ft | 277 kts | 225° |
| 2026-04-26 09:05 | 46.20850 | 5.86032 | 7078 ft | 260 kts | 225° |
| 2026-04-26 09:05 | 46.19619 | 5.84253 | 6986 ft | 242 kts | 225° |
| 2026-04-26 09:05 | 46.18484 | 5.82609 | 6995 ft | 221 kts | 225° |
| 2026-04-26 09:05 | 46.17392 | 5.81037 | 6998 ft | 218 kts | 225° |
| 2026-04-26 09:06 | 46.16352 | 5.79541 | 6979 ft | 205 kts | 226° |
| 2026-04-26 09:06 | 46.15389 | 5.78103 | 7012 ft | 197 kts | 225° |
| 2026-04-26 09:06 | 46.14401 | 5.76673 | 6993 ft | 201 kts | 225° |
| 2026-04-26 09:06 | 46.13412 | 5.75240 | 6995 ft | 202 kts | 225° |
| 2026-04-26 09:07 | 46.12413 | 5.73813 | 6999 ft | 203 kts | 225° |
| 2026-04-26 09:07 | 46.11416 | 5.72367 | 7040 ft | 207 kts | 226° |
| 2026-04-26 09:07 | 46.10325 | 5.71055 | 6982 ft | 201 kts | 207° |
| 2026-04-26 09:07 | 46.08964 | 5.70735 | 7000 ft | 203 kts | 171° |
| 2026-04-26 09:08 | 46.07675 | 5.71538 | 7003 ft | 203 kts | 140° |
| 2026-04-26 09:08 | 46.06708 | 5.72939 | 6977 ft | 189 kts | 127° |
| 2026-04-26 09:08 | 46.05848 | 5.74490 | 7020 ft | 207 kts | 126° |
| 2026-04-26 09:08 | 46.04954 | 5.76047 | 7012 ft | 195 kts | 129° |
| 2026-04-26 09:09 | 46.04035 | 5.77480 | 6992 ft | 197 kts | 130° |
| 2026-04-26 09:09 | 46.03301 | 5.79105 | 6895 ft | 192 kts | 102° |
| 2026-04-26 09:09 | 46.03471 | 5.80944 | 6729 ft | 189 kts | 61° |
| 2026-04-26 09:09 | 46.04282 | 5.82423 | 6547 ft | 192 kts | 44° |
| 2026-04-26 09:10 | 46.05262 | 5.83728 | 6285 ft | 196 kts | 41° |
| 2026-04-26 09:10 | 46.06206 | 5.85130 | 5976 ft | 191 kts | 46° |
| 2026-04-26 09:10 | 46.07100 | 5.86430 | 5739 ft | 175 kts | 43° |
| 2026-04-26 09:10 | 46.07922 | 5.87622 | 5525 ft | 159 kts | 45° |
| 2026-04-26 09:11 | 46.08655 | 5.88701 | 5322 ft | 145 kts | 44° |
| 2026-04-26 09:11 | 46.09329 | 5.89744 | 5157 ft | 142 kts | 43° |
| 2026-04-26 09:11 | 46.10044 | 5.90741 | 4983 ft | 146 kts | 43° |
| 2026-04-26 09:11 | 46.10766 | 5.91783 | 4805 ft | 144 kts | 44° |
| 2026-04-26 09:12 | 46.11463 | 5.92796 | 4608 ft | 139 kts | 45° |
| 2026-04-26 09:12 | 46.12140 | 5.93801 | 4388 ft | 144 kts | 44° |
| 2026-04-26 09:12 | 46.12843 | 5.94825 | 4209 ft | 141 kts | 44° |
| 2026-04-26 09:12 | 46.13525 | 5.95825 | 4010 ft | 141 kts | 44° |
| 2026-04-26 09:13 | 46.14220 | 5.96847 | 3846 ft | 140 kts | 45° |
| 2026-04-26 09:13 | 46.14917 | 5.97873 | 3644 ft | 148 kts | 43° |
| 2026-04-26 09:13 | 46.15645 | 5.98919 | 3450 ft | 144 kts | 45° |
| 2026-04-26 09:13 | 46.16316 | 5.99920 | 3274 ft | 138 kts | 45° |
| 2026-04-26 09:14 | 46.16986 | 6.00932 | 3073 ft | 138 kts | 45° |
| 2026-04-26 09:14 | 46.17657 | 6.01919 | 2818 ft | 140 kts | 43° |
| 2026-04-26 09:14 | 46.18357 | 6.02896 | 2682 ft | 142 kts | 43° |
| 2026-04-26 09:14 | 46.19066 | 6.03893 | 2475 ft | 140 kts | 44° |
| 2026-04-26 09:15 | 46.19735 | 6.04899 | 2289 ft | 141 kts | 46° |
| 2026-04-26 09:15 | 46.20418 | 6.05922 | 2109 ft | 139 kts | 45° |
| 2026-04-26 09:15 | 46.21080 | 6.06917 | 1877 ft | 136 kts | 46° |
| 2026-04-26 09:15 | 46.21750 | 6.07905 | 1721 ft | 137 kts | 45° |
| 2026-04-26 09:16 | 46.22427 | 6.08878 | 1534 ft | 138 kts | 45° |
| 2026-04-26 09:16 | 46.23088 | 6.09850 | 1435 ft | 133 kts | 43° |
| 2026-04-26 09:16 | 46.23639 | 6.10648 | 1415 ft | 73 kts | 45° |
| 2026-04-26 09:16 | 46.23856 | 6.11008 | 1413 ft | 14 kts | 78° |
| 2026-04-26 09:17 | 46.23817 | 6.11082 | 1410 ft | 9 kts | 165° |
| 2026-04-26 09:17 | 46.23772 | 6.11090 | 1407 ft | 0 kts | 174° |